Time;durP1;ratioP1;P1;durP2;ratioP2;P2;SDS_P1;SDS_P2;PMS_P1;PMS_P2;Temp;Humidity;BMP_temperature;BMP_pressure;BME280_temperature;BME280_humidity;BME280_pressure;Samples;Min_cycle;Max_cycle;Signal;HPM_P1;HPM_P2
2022/09/01 00:00:37;;;;;;;56.05;53.35;;;;;;;24.66;34.95;101938.59;4989414;28;20383;-74
2022/09/01 00:03:03;;;;;;;59.80;57.00;;;;;;;24.63;35.04;101938.41;4989508;28;20038;-74
2022/09/01 00:05:31;;;;;;;58.05;55.30;;;;;;;24.60;35.10;101934.31;4957416;28;20383;-75
2022/09/01 00:07:57;;;;;;;56.33;53.65;;;;;;;24.57;35.00;101932.19;4988885;28;20468;-74
2022/09/01 00:10:23;;;;;;;55.95;53.28;;;;;;;24.54;35.41;101933.59;4989443;28;20114;-73
2022/09/01 00:12:48;;;;;;;57.45;54.28;;;;;;;24.52;35.49;101935.03;4989346;28;20026;-74
2022/09/01 00:15:14;;;;;;;55.53;52.92;;;;;;;24.50;35.30;101929.00;4990203;28;20533;-73
2022/09/01 00:17:40;;;;;;;57.08;54.28;;;;;;;24.46;35.54;101928.78;4978397;28;20037;-74
2022/09/01 00:20:06;;;;;;;54.65;51.95;;;;;;;24.44;35.20;101928.25;4978408;28;20035;-74
2022/09/01 00:22:32;;;;;;;55.70;53.10;;;;;;;24.43;35.06;101934.09;4993800;28;20047;-77
2022/09/01 00:24:58;;;;;;;55.45;52.85;;;;;;;24.40;35.40;101927.25;4979153;28;20034;-74
2022/09/01 00:27:23;;;;;;;54.80;52.22;;;;;;;24.37;35.79;101930.63;4976865;28;20045;-74
2022/09/01 00:29:48;;;;;;;55.92;53.25;;;;;;;24.35;35.67;101927.34;4978212;28;20073;-73
2022/09/01 00:32:14;;;;;;;54.97;52.13;;;;;;;24.33;35.43;101929.59;4993501;28;20475;-74
2022/09/01 00:34:40;;;;;;;53.38;50.83;;;;;;;24.30;35.81;101931.03;4978423;28;20039;-74
2022/09/01 00:37:06;;;;;;;55.15;52.30;;;;;;;24.28;35.43;101930.50;4993444;28;20042;-74
2022/09/01 00:39:32;;;;;;;53.80;51.13;;;;;;;24.26;35.42;101924.47;4993676;28;20027;-76
2022/09/01 00:41:58;;;;;;;55.50;52.72;;;;;;;24.24;35.77;101925.91;4976955;28;20077;-74
2022/09/01 00:44:26;;;;;;;54.33;51.83;;;;;;;24.20;35.67;101922.94;4993399;28;20035;-73
2022/09/01 00:46:54;;;;;;;52.72;50.15;;;;;;;24.18;35.92;101923.25;4978120;28;20496;-73
2022/09/01 00:49:23;;;;;;;;;;;;;;;24.16;35.82;101922.72;4978596;28;20038;-74
2022/09/01 00:51:54;;;;;;;52.70;50.20;;;;;;;24.13;35.97;101925.28;4978150;28;19910;-75
2022/09/01 00:54:26;;;;;;;54.50;51.90;;;;;;;24.10;35.98;101925.91;4978025;28;20090;-74
2022/09/01 00:56:54;;;;;;;53.63;51.13;;;;;;;24.07;35.88;101921.81;4978726;28;20117;-75
2022/09/01 00:59:21;;;;;;;52.28;49.65;;;;;;;24.04;35.92;101916.91;4977703;28;20039;-73
2022/09/01 01:01:47;;;;;;;53.45;50.95;;;;;;;24.03;36.31;101920.78;4977903;28;20027;-77
2022/09/01 01:04:15;;;;;;;53.30;50.25;;;;;;;24.00;36.26;101926.94;4977872;28;20438;-76
2022/09/01 01:06:48;;;;;;;54.33;51.42;;;;;;;23.97;36.29;101913.75;4977791;28;20455;-77
2022/09/01 01:09:16;;;;;;;52.38;49.88;;;;;;;23.95;36.08;101921.50;4978344;28;20461;-74
2022/09/01 01:11:45;;;;;;;54.87;52.23;;;;;;;23.92;36.04;101914.66;4977728;28;20101;-76
2022/09/01 01:14:14;;;;;;;54.72;52.13;;;;;;;23.91;36.06;101917.69;4977685;28;20033;-74
2022/09/01 01:16:43;;;;;;;54.35;51.83;;;;;;;23.89;36.54;101917.19;4977664;28;20035;-73
2022/09/01 01:25:11;;;;;;;51.80;49.40;;;;;;;23.79;36.71;101911.84;4978136;28;20391;-73
2022/09/01 01:27:39;;;;;;;51.88;49.38;;;;;;;23.75;36.69;101915.22;4977297;28;20402;-78
2022/09/01 01:30:08;;;;;;;51.90;49.40;;;;;;;23.74;36.48;101916.38;4977379;28;20121;-73
2022/09/01 01:32:34;;;;;;;51.88;49.28;;;;;;;23.71;36.39;101908.66;4977719;28;20030;-73
2022/09/01 01:35:04;;;;;;;51.10;48.60;;;;;;;23.70;36.44;101909.78;4977276;28;20077;-73
2022/09/01 01:37:34;;;;;;;50.30;47.90;;;;;;;23.68;36.82;101920.28;4977195;28;20038;-73
2022/09/01 01:39:59;;;;;;;52.13;49.63;;;;;;;23.67;36.92;101913.16;4976959;28;20043;-73
2022/09/01 01:42:25;;;;;;;52.70;50.13;;;;;;;23.64;36.79;101916.50;4977475;28;20506;-72
2022/09/01 01:44:51;;;;;;;54.67;51.83;;;;;;;23.62;36.65;101921.50;4978016;28;20046;-72
2022/09/01 01:47:16;;;;;;;52.50;50.00;;;;;;;23.60;36.57;101918.22;4977059;28;20442;-74
2022/09/01 01:49:42;;;;;;;53.42;50.42;;;;;;;23.59;36.67;101924.06;4975943;28;20039;-73
2022/09/01 01:52:10;;;;;;;52.00;49.50;;;;;;;23.57;36.53;101924.34;4977385;28;20030;-73
2022/09/01 01:54:36;;;;;;;51.08;48.47;;;;;;;23.54;36.66;101919.44;4976815;28;20042;-73
2022/09/01 01:57:03;;;;;;;52.75;50.08;;;;;;;23.53;36.65;101923.31;4991816;28;20050;-73
2022/09/01 01:59:29;;;;;;;53.97;51.08;;;;;;;23.50;37.17;101927.50;4975581;28;20035;-73
2022/09/01 02:01:55;;;;;;;54.40;51.50;;;;;;;23.49;36.93;101934.13;4977220;28;20069;-73
2022/09/01 02:04:21;;;;;;;54.17;51.65;;;;;;;23.45;37.12;101922.06;4976972;28;20126;-74
2022/09/01 02:06:48;;;;;;;54.05;51.40;;;;;;;23.43;36.67;101921.53;4975528;28;20038;-74
2022/09/01 02:09:16;;;;;;;53.45;50.85;;;;;;;23.42;36.75;101922.66;4976771;28;20034;-73
2022/09/01 02:11:43;;;;;;;50.30;47.80;;;;;;;23.40;37.01;101924.91;4976556;28;20467;-75
2022/09/01 02:14:09;;;;;;;51.45;48.95;;;;;;;23.38;37.17;101921.63;4991344;28;20043;-72
2022/09/01 02:16:35;;;;;;;52.80;50.30;;;;;;;23.36;37.10;101912.84;4976786;28;20038;-72
2022/09/01 02:19:03;;;;;;;51.72;49.22;;;;;;;23.34;36.98;101917.84;4991647;28;20463;-73
2022/09/01 02:21:29;;;;;;;50.05;47.65;;;;;;;23.32;37.15;101920.09;4976573;28;20070;-73
2022/09/01 02:24:01;;;;;;;50.13;47.53;;;;;;;23.28;37.40;101916.28;4975076;28;20175;-73
2022/09/01 02:26:37;;;;;;;50.97;48.47;;;;;;;23.27;36.95;101909.94;4976801;28;20037;-77
2022/09/01 02:29:05;;;;;;;48.67;46.38;;;;;;;23.24;37.53;101915.25;4976279;28;20033;-73
2022/09/01 02:31:34;;;;;;;;;;;;;;;23.22;37.02;101912.78;4991272;28;20046;-73
2022/09/01 02:33:59;;;;;;;49.35;46.90;;;;;;;23.19;37.44;101913.41;4974853;28;19932;-72
2022/09/01 02:36:25;;;;;;;51.78;49.00;;;;;;;23.17;37.07;101915.63;4991107;28;20493;-74
2022/09/01 02:38:52;;;;;;;50.10;47.70;;;;;;;23.15;37.39;101908.78;4975764;28;20353;-73
2022/09/01 02:41:19;;;;;;;49.78;47.10;;;;;;;23.13;37.30;101908.25;4976028;28;20035;-73
2022/09/01 02:43:45;;;;;;;48.10;45.80;;;;;;;23.10;37.34;101916.00;4975932;28;20035;-77
2022/09/01 02:46:11;;;;;;;50.38;47.75;;;;;;;23.09;37.17;101916.31;4976526;28;20490;-73
2022/09/01 02:48:40;;;;;;;50.45;47.95;;;;;;;23.07;37.48;101921.28;4975896;28;20093;-73
2022/09/01 02:51:08;;;;;;;49.05;46.25;;;;;;;23.04;37.55;101914.44;4975840;28;20027;-73
2022/09/01 02:53:34;;;;;;;;;;;;;;;23.03;37.55;101906.47;4976177;28;20102;-72
2022/09/01 02:56:01;;;;;;;50.17;47.67;;;;;;;23.00;37.59;101904.31;4975772;28;20013;-73
2022/09/01 02:58:29;;;;;;;48.83;46.38;;;;;;;22.97;37.31;101908.50;4975753;28;20093;-73
2022/09/01 03:00:56;;;;;;;48.50;46.10;;;;;;;22.96;37.39;101901.31;4975569;28;20085;-73
2022/09/01 03:03:21;;;;;;;49.13;45.83;;;;;;;22.94;37.40;101903.56;4975325;28;20297;-73
2022/09/01 03:05:54;;;;;;;49.33;46.72;;;;;;;22.93;37.49;101904.69;4974603;28;20035;-74
2022/09/01 03:08:20;;;;;;;49.25;46.95;;;;;;;22.90;37.59;101905.25;4976083;28;20113;-74
2022/09/01 03:10:46;;;;;;;49.28;46.78;;;;;;;22.88;37.62;101902.81;4974317;28;20474;-78
2022/09/01 03:13:19;;;;;;;49.45;47.00;;;;;;;22.86;37.51;101902.28;4990738;28;20121;-74
2022/09/01 03:15:45;;;;;;;46.85;44.60;;;;;;;22.84;37.52;101907.28;4975638;28;20386;-77
2022/09/01 03:18:12;;;;;;;47.45;45.17;;;;;;;22.83;37.20;101907.56;4975086;28;20035;-73
2022/09/01 03:20:45;;;;;;;49.42;46.92;;;;;;;22.82;37.77;101905.94;4973963;28;20031;-72
2022/09/01 03:23:13;;;;;;;49.50;47.10;;;;;;;22.79;37.66;101903.78;4975951;28;20035;-73
2022/09/01 03:25:43;;;;;;;49.30;46.45;;;;;;;22.77;37.85;101906.81;4990117;28;20026;-73
2022/09/01 03:28:11;;;;;;;49.67;47.22;;;;;;;22.75;37.66;101903.53;4973540;28;20084;-73
2022/09/01 03:30:41;;;;;;;;;;;;;;;22.74;37.47;101895.59;4976120;28;20455;-73
2022/09/01 03:33:06;;;;;;;46.78;44.45;;;;;;;22.71;37.37;101894.25;4974995;28;19910;-73
2022/09/01 03:35:32;;;;;;;47.08;44.88;;;;;;;22.68;37.46;101898.41;4990332;28;20061;-73
2022/09/01 03:38:00;;;;;;;49.10;46.70;;;;;;;22.66;37.73;101895.13;4975168;28;20070;-74
2022/09/01 03:40:31;;;;;;;50.40;47.60;;;;;;;22.64;37.70;101891.84;4973824;28;20468;-72
2022/09/01 03:43:00;;;;;;;48.30;45.90;;;;;;;22.64;37.94;101899.28;4975253;28;20489;-73
2022/09/01 03:45:26;;;;;;;48.88;46.47;;;;;;;22.62;37.65;101894.06;4974977;28;20365;-74
2022/09/01 03:47:53;;;;;;;48.38;46.00;;;;;;;22.60;37.53;101896.31;4973811;28;20405;-73
2022/09/01 03:50:21;;;;;;;47.00;44.38;;;;;;;22.58;37.55;101893.03;4989500;28;20034;-73
2022/09/01 03:52:49;;;;;;;47.45;45.22;;;;;;;22.57;37.86;101887.81;4974899;28;20031;-73
2022/09/01 03:55:22;;;;;;;45.90;43.70;;;;;;;22.55;37.72;101895.56;4973257;28;20043;-73
2022/09/01 03:57:54;;;;;;;46.25;44.05;;;;;;;22.52;37.91;101894.22;4973805;28;20042;-73
2022/09/01 04:00:23;;;;;;;47.88;45.40;;;;;;;22.52;37.79;101896.16;4975003;28;20030;-72
2022/09/01 04:02:50;;;;;;;47.35;45.00;;;;;;;22.50;37.77;101890.09;4974620;28;20031;-72
2022/09/01 04:05:20;;;;;;;48.85;46.22;;;;;;;22.46;38.00;101885.19;4974675;28;20538;-72
2022/09/01 04:07:47;;;;;;;47.22;44.92;;;;;;;22.44;37.86;101883.84;4974923;28;20055;-73
2022/09/01 04:10:13;;;;;;;46.83;44.38;;;;;;;22.43;38.06;101885.00;4974522;28;20045;-73
2022/09/01 04:12:39;;;;;;;47.63;45.22;;;;;;;22.41;37.74;101890.78;4974649;28;20094;-72
2022/09/01 04:15:07;;;;;;;47.67;45.28;;;;;;;22.38;38.20;101877.59;4974207;28;20433;-73
2022/09/01 04:20:19;;;;;;;48.38;45.85;;;;;;;22.35;37.86;101888.38;4974815;28;20065;-72
2022/09/01 04:22:46;;;;;;;47.28;44.97;;;;;;;22.32;38.13;101887.03;4974707;28;20376;-73
2022/09/01 04:25:12;;;;;;;46.17;43.88;;;;;;;22.32;38.24;101892.53;4989102;28;20046;-73
2022/09/01 04:27:39;;;;;;;47.38;44.78;;;;;;;22.30;37.92;101891.19;4989460;28;20043;-73
2022/09/01 04:30:09;;;;;;;50.10;47.20;;;;;;;22.29;38.27;101895.06;4973135;28;20133;-74
2022/09/01 04:32:39;;;;;;;50.40;47.90;;;;;;;22.25;38.07;101892.91;4973889;28;20042;-73
2022/09/01 04:35:06;;;;;;;48.45;45.60;;;;;;;22.24;38.42;101893.19;4974403;28;20093;-74
2022/09/01 04:37:35;;;;;;;47.13;44.83;;;;;;;22.20;37.84;101892.97;4974308;28;20042;-73
2022/09/01 04:40:02;;;;;;;47.50;44.97;;;;;;;22.19;38.14;101896.81;4974229;28;20039;-74
2022/09/01 04:42:31;;;;;;;47.90;45.40;;;;;;;22.17;38.44;101895.44;4974337;28;20455;-73
2022/09/01 04:44:59;;;;;;;47.95;45.50;;;;;;;22.15;38.39;101889.41;4974212;28;20479;-73
2022/09/01 04:47:28;;;;;;;46.92;44.63;;;;;;;22.13;38.06;101892.47;4974265;28;20519;-73
2022/09/01 04:49:57;;;;;;;46.05;43.75;;;;;;;22.11;37.92;101896.63;4974183;28;20086;-77
2022/09/01 04:52:23;;;;;;;46.08;43.67;;;;;;;22.08;38.35;101900.78;4989113;28;20094;-73
2022/09/01 04:54:48;;;;;;;45.97;43.78;;;;;;;22.08;38.34;101897.22;4973911;28;20051;-71
2022/09/01 04:57:15;;;;;;;47.88;45.15;;;;;;;22.05;38.26;101898.63;4973071;28;20139;-72
2022/09/01 04:59:41;;;;;;;46.53;44.13;;;;;;;22.02;38.24;101893.69;4974155;28;20056;-72
2022/09/01 05:02:08;;;;;;;46.50;44.20;;;;;;;22.00;38.37;101896.75;4976470;28;20150;-72
2022/09/01 05:04:34;;;;;;;47.38;44.92;;;;;;;21.99;38.51;101899.78;4976533;28;20038;-75
2022/09/01 05:07:02;;;;;;;45.45;43.25;;;;;;;21.96;38.03;101895.66;4977668;28;20022;-72
2022/09/01 05:09:29;;;;;;;46.42;43.78;;;;;;;21.94;38.38;101889.63;4992614;28;20023;-72
2022/09/01 05:11:56;;;;;;;46.67;44.28;;;;;;;21.93;38.07;101892.69;4977652;28;20069;-72
2022/09/01 05:14:22;;;;;;;45.22;42.83;;;;;;;21.90;37.95;101887.75;4977858;28;20194;-73
2022/09/01 05:16:49;;;;;;;47.20;44.55;;;;;;;21.89;38.25;101897.13;4977281;28;20368;-73
2022/09/01 05:19:16;;;;;;;46.47;44.17;;;;;;;21.87;38.27;101894.66;4978000;28;20118;-73
2022/09/01 05:21:46;;;;;;;45.83;43.63;;;;;;;21.86;38.44;101894.97;4976342;28;20475;-73
2022/09/01 05:24:16;;;;;;;45.25;42.95;;;;;;;21.83;37.99;101904.63;4977373;28;20022;-73
2022/09/01 05:26:43;;;;;;;47.65;45.25;;;;;;;21.80;38.41;101897.78;4977888;28;20022;-73
2022/09/01 05:29:12;;;;;;;46.95;44.55;;;;;;;21.79;38.53;101898.88;4977324;28;20038;-71
2022/09/01 05:31:44;;;;;;;45.22;42.72;;;;;;;21.77;38.68;101903.00;4977409;28;20019;-74
2022/09/01 05:34:11;;;;;;;46.80;44.00;;;;;;;21.75;38.78;101908.81;4991992;28;20034;-73
2022/09/01 05:36:40;;;;;;;45.05;42.42;;;;;;;21.73;38.53;101899.22;4976970;28;20049;-72
2022/09/01 05:39:06;;;;;;;46.42;44.13;;;;;;;21.72;38.58;101903.06;4977066;28;20030;-72
2022/09/01 05:41:35;;;;;;;44.03;41.83;;;;;;;21.69;38.65;101900.91;4976521;28;20363;-73
2022/09/01 05:44:06;;;;;;;46.08;43.53;;;;;;;21.68;38.60;101899.28;4977358;28;20031;-73
2022/09/01 05:46:33;;;;;;;45.70;43.35;;;;;;;21.65;38.62;101903.41;4977637;28;20026;-73
2022/09/01 05:48:59;;;;;;;44.45;42.22;;;;;;;21.64;38.87;101907.25;4976755;28;20050;-77
2022/09/01 05:51:27;;;;;;;45.38;43.13;;;;;;;21.62;38.88;101906.75;4977014;28;20027;-74
2022/09/01 05:53:55;;;;;;;;;;;;;;;21.60;38.41;101903.47;4977879;28;20038;-74
2022/09/01 05:56:21;;;;;;;42.97;40.80;;;;;;;21.58;38.52;101902.94;4975076;28;20354;-73
2022/09/01 05:58:47;;;;;;;45.38;43.17;;;;;;;21.55;38.61;101907.09;4976903;28;20074;-73
2022/09/01 06:01:21;;;;;;;45.53;43.33;;;;;;;21.53;38.73;101909.28;4975626;28;20041;-73
2022/09/01 06:03:55;;;;;;;44.03;41.72;;;;;;;21.52;38.57;101904.91;4977286;28;20085;-72
2022/09/01 06:06:27;;;;;;;44.90;42.50;;;;;;;21.49;38.81;101904.66;4976765;28;20038;-73
2022/09/01 06:08:57;;;;;;;42.38;40.33;;;;;;;21.47;38.70;101906.88;4976698;28;20030;-74
2022/09/01 06:11:25;;;;;;;43.70;41.20;;;;;;;21.44;38.78;101904.69;4975478;28;20054;-73
2022/09/01 06:13:55;;;;;;;44.97;42.67;;;;;;;21.43;38.54;101916.81;4975706;28;20062;-73
2022/09/01 06:16:23;;;;;;;44.75;42.35;;;;;;;21.41;38.89;101908.84;4977058;28;20045;-73
2022/09/01 06:18:51;;;;;;;44.30;42.13;;;;;;;21.39;38.79;101916.56;4976464;28;20125;-74
2022/09/01 06:21:17;;;;;;;43.47;40.78;;;;;;;21.37;38.92;101916.81;4991394;28;20037;-72
2022/09/01 06:23:44;;;;;;;43.97;41.70;;;;;;;21.37;38.67;101918.75;4976199;28;20371;-73
2022/09/01 06:26:22;;;;;;;46.45;43.60;;;;;;;21.35;39.04;101912.72;4976254;28;20027;-73
2022/09/01 06:28:53;;;;;;;46.30;43.00;;;;;;;21.34;38.83;101914.66;4991170;28;20023;-74
2022/09/01 06:31:24;;;;;;;45.25;42.85;;;;;;;21.33;38.77;101914.94;4976503;28;20030;-74
2022/09/01 06:33:52;;;;;;;45.35;42.53;;;;;;;21.30;38.84;101912.75;4991468;28;20423;-73
2022/09/01 06:36:22;;;;;;;45.45;42.97;;;;;;;21.29;38.70;101920.19;4976133;28;20030;-73
2022/09/01 06:38:51;;;;;;;42.45;40.33;;;;;;;21.29;38.91;101916.59;4976167;28;20042;-74
2022/09/01 06:41:18;;;;;;;44.60;42.28;;;;;;;21.27;39.06;101921.56;4976084;28;20037;-72
2022/09/01 06:43:52;;;;;;;44.00;41.25;;;;;;;21.25;39.19;101918.28;4991705;28;20392;-72
2022/09/01 06:46:18;;;;;;;45.25;42.97;;;;;;;21.25;39.00;101926.53;4976199;28;20035;-74
2022/09/01 06:48:45;;;;;;;44.40;41.90;;;;;;;21.24;39.03;101924.88;4991190;28;20054;-73
2022/09/01 06:51:13;;;;;;;43.55;41.30;;;;;;;21.22;39.29;101927.94;4976319;28;20027;-72
2022/09/01 06:53:40;;;;;;;41.07;39.07;;;;;;;21.23;38.90;101934.25;4974692;28;20027;-74
2022/09/01 06:56:05;;;;;;;44.33;41.90;;;;;;;21.22;38.89;101929.84;4990427;28;20296;-74
2022/09/01 06:58:32;;;;;;;43.83;41.53;;;;;;;21.22;39.07;101927.09;4975444;28;20445;-73
2022/09/01 07:00:57;;;;;;;44.08;41.88;;;;;;;21.22;39.25;101935.34;4975529;28;20044;-75
2022/09/01 07:03:24;;;;;;;43.92;41.40;;;;;;;21.21;39.14;101928.22;4990677;28;20086;-73
2022/09/01 07:05:50;;;;;;;44.53;42.13;;;;;;;21.21;39.14;101930.97;4974797;28;20041;-73
2022/09/01 07:08:20;;;;;;;44.38;42.08;;;;;;;21.21;39.01;101940.00;4990436;28;20050;-71
2022/09/01 07:10:50;;;;;;;45.00;42.47;;;;;;;21.21;39.21;101931.78;4976499;28;20031;-73
2022/09/01 07:13:24;;;;;;;42.58;39.58;;;;;;;21.20;39.09;101938.38;4990673;28;20062;-74
2022/09/01 07:15:51;;;;;;;41.95;39.85;;;;;;;21.21;39.25;101942.75;4975788;28;20110;-74
2022/09/01 07:18:19;;;;;;;45.63;42.97;;;;;;;21.21;39.66;101947.44;4990198;28;20027;-74
2022/09/01 07:20:47;;;;;;;42.63;39.67;;;;;;;21.22;39.46;101935.34;4975248;28;20086;-74
2022/09/01 07:23:17;;;;;;;44.75;42.10;;;;;;;21.23;39.27;101942.50;4974850;28;20113;-75
2022/09/01 07:25:44;;;;;;;43.30;40.97;;;;;;;21.23;39.72;101945.25;4974966;28;20054;-75
2022/09/01 07:28:12;;;;;;;44.80;42.28;;;;;;;21.25;39.39;101945.78;4974579;28;20037;-79
2022/09/01 07:30:51;;;;;;;43.47;41.05;;;;;;;21.27;39.79;101951.78;4990244;28;20407;-76
2022/09/01 07:33:23;;;;;;;42.65;40.13;;;;;;;21.29;39.81;101946.81;4975293;28;20023;-76
2022/09/01 07:35:52;;;;;;;43.58;41.28;;;;;;;21.30;39.67;101937.50;4975606;28;20054;-75
2022/09/01 07:38:18;;;;;;;44.88;42.00;;;;;;;21.31;39.66;101937.19;4975614;28;20448;-74
2022/09/01 07:40:44;;;;;;;43.15;40.55;;;;;;;21.34;39.80;101935.81;4989821;28;20110;-77
2022/09/01 07:43:21;;;;;;;43.17;40.85;;;;;;;21.37;39.44;101940.75;4974791;28;20142;-79
2022/09/01 07:45:49;;;;;;;43.55;40.88;;;;;;;21.39;39.75;101935.78;4973925;28;20031;-75
2022/09/01 07:48:21;;;;;;;42.88;40.58;;;;;;;21.42;39.51;101948.97;4975007;28;20429;-75
2022/09/01 07:50:51;;;;;;;43.78;41.22;;;;;;;21.45;40.02;101951.16;4974909;28;20348;-74
2022/09/01 07:53:23;;;;;;;44.15;41.15;;;;;;;21.49;39.48;101945.88;4975058;28;20027;-74
2022/09/01 07:55:51;;;;;;;44.20;41.95;;;;;;;21.52;40.03;101946.16;4989932;28;20126;-74
2022/09/01 07:58:19;;;;;;;43.50;41.20;;;;;;;21.55;39.71;101942.81;4974607;28;20026;-79
2022/09/01 08:00:46;;;;;;;44.65;42.03;;;;;;;21.60;39.55;101951.03;4974782;28;20039;-74
2022/09/01 08:03:13;;;;;;;44.78;42.30;;;;;;;21.65;39.82;101941.09;4974558;28;20470;-76
2022/09/01 08:05:39;;;;;;;43.95;41.75;;;;;;;21.69;40.12;101942.16;4975216;28;20030;-78
2022/09/01 08:08:05;;;;;;;45.22;42.72;;;;;;;21.73;40.04;101941.28;4973694;28;20118;-74
2022/09/01 08:10:31;;;;;;;44.38;41.45;;;;;;;21.78;39.75;101943.19;4974308;28;20109;-75
2022/09/01 08:12:56;;;;;;;43.88;41.58;;;;;;;21.83;40.14;101943.13;4973476;28;20034;-74
2022/09/01 08:15:23;;;;;;;44.90;42.50;;;;;;;21.89;39.60;101941.13;4973970;28;20088;-74
2022/09/01 08:17:48;;;;;;;46.40;44.00;;;;;;;21.92;39.88;101944.13;4974395;28;20038;-75
2022/09/01 08:20:14;;;;;;;47.05;44.55;;;;;;;21.97;39.95;101946.84;4974636;28;20038;-75
2022/09/01 08:22:39;;;;;;;43.78;41.42;;;;;;;22.01;39.62;101942.38;4989204;28;20034;-75
2022/09/01 08:25:09;;;;;;;44.75;42.15;;;;;;;22.07;40.30;101945.91;4989322;28;20113;-76
2022/09/01 08:27:37;;;;;;;44.60;42.13;;;;;;;22.12;40.12;101948.59;4974646;28;20034;-76
2022/09/01 08:30:09;;;;;;;47.45;44.13;;;;;;;22.20;39.77;101948.00;4973339;28;20122;-75
2022/09/01 08:32:36;;;;;;;44.88;41.80;;;;;;;22.26;39.89;101946.00;4974992;28;20105;-74
2022/09/01 08:35:03;;;;;;;46.58;44.17;;;;;;;22.32;39.73;101938.50;4989314;28;20169;-74
2022/09/01 08:37:30;;;;;;;45.40;43.10;;;;;;;22.39;39.89;101931.53;4976938;28;20035;-74
2022/09/01 08:39:55;;;;;;;47.03;44.33;;;;;;;22.46;40.06;101940.25;4977900;28;20022;-75
2022/09/01 08:43:08;;;;;;;48.28;45.75;;;;;;;22.57;39.93;101934.63;4993052;28;20459;-74
2022/09/01 08:45:46;;;;;;;45.50;43.28;;;;;;;22.65;40.04;101933.97;4977722;28;20058;-75
2022/09/01 08:48:20;;;;;;;45.97;43.70;;;;;;;22.72;40.20;101936.38;4978114;28;20023;-83
2022/09/01 08:50:56;;;;;;;47.22;44.80;;;;;;;22.78;39.78;101933.25;4978010;28;20050;-75
2022/09/01 08:53:30;;;;;;;50.00;47.30;;;;;;;22.86;39.63;101938.09;4976804;28;20033;-74
2022/09/01 08:55:57;;;;;;;48.40;45.75;;;;;;;22.93;39.72;101943.25;4978265;28;20047;-74
2022/09/01 08:58:23;;;;;;;51.00;47.95;;;;;;;22.99;39.75;101939.31;4993603;28;20060;-74
2022/09/01 09:01:00;;;;;;;46.50;43.47;;;;;;;23.06;39.60;101933.44;4977397;28;20031;-74
2022/09/01 09:03:47;;;;;;;49.20;46.50;;;;;;;23.13;39.45;101936.63;4978246;28;20030;-74
2022/09/01 09:06:51;;;;;;;47.28;44.70;;;;;;;23.22;39.63;101928.53;4976593;28;20109;-81
2022/09/01 09:09:17;;;;;;;50.95;48.08;;;;;;;23.26;39.63;101924.88;4958971;28;20027;-77
2022/09/01 09:12:24;;;;;;;48.10;45.55;;;;;;;23.32;39.39;101925.59;4977986;28;20085;-74
2022/09/01 09:14:56;;;;;;;49.10;46.42;;;;;;;23.36;39.64;101923.88;4993154;28;20407;-74
2022/09/01 09:17:29;;;;;;;49.80;47.20;;;;;;;23.41;39.54;101928.47;4992427;28;20025;-74
2022/09/01 09:19:54;;;;;;;46.63;44.38;;;;;;;23.47;39.13;101930.03;4977465;28;20118;-74
2022/09/01 09:22:19;;;;;;;50.85;48.28;;;;;;;23.51;39.34;101928.31;4977472;28;20162;-74
2022/09/01 09:25:02;;;;;;;47.63;45.30;;;;;;;23.54;39.34;101923.03;4977347;28;20027;-74
2022/09/01 09:27:28;;;;;;;50.17;47.13;;;;;;;23.59;39.48;101927.63;4977876;28;20058;-73
2022/09/01 09:29:59;;;;;;;51.00;47.90;;;;;;;23.65;39.36;101920.09;4992795;28;20042;-74
2022/09/01 09:32:46;;;;;;;51.83;48.70;;;;;;;23.70;39.13;101922.75;4977207;28;20110;-78
2022/09/01 09:35:24;;;;;;;50.88;48.22;;;;;;;23.74;39.50;101913.59;4977246;28;20026;-74
2022/09/01 09:37:51;;;;;;;51.03;48.35;;;;;;;23.79;38.99;101920.13;4977434;28;20348;-72
2022/09/01 09:40:19;;;;;;;49.95;47.38;;;;;;;23.85;38.68;101918.94;4976657;28;20023;-73
2022/09/01 09:43:06;;;;;;;51.50;48.67;;;;;;;23.89;39.04;101909.75;4977154;28;20462;-73
2022/09/01 09:45:33;;;;;;;50.73;48.03;;;;;;;23.94;38.84;101917.13;4976898;28;20262;-73
2022/09/01 09:48:03;;;;;;;52.92;49.83;;;;;;;23.97;38.83;101913.75;4975201;28;20302;-73
2022/09/01 09:50:38;;;;;;;52.40;49.80;;;;;;;24.01;38.58;101900.94;4977288;28;20081;-74
2022/09/01 09:53:30;;;;;;;50.83;48.33;;;;;;;24.05;38.92;101903.94;4976972;28;20459;-75
2022/09/01 09:55:58;;;;;;;52.80;50.10;;;;;;;24.10;38.41;101898.31;4976392;28;20050;-73
2022/09/01 09:58:46;;;;;;;53.08;50.47;;;;;;;24.14;38.42;101894.63;4977035;28;20031;-74
2022/09/01 10:01:22;;;;;;;53.40;50.08;;;;;;;24.21;38.51;101902.50;4976489;28;20473;-76
2022/09/01 10:03:54;;;;;;;51.60;48.42;;;;;;;24.25;38.16;101899.94;4976557;28;20113;-72
2022/09/01 10:06:45;;;;;;;52.75;50.15;;;;;;;24.30;38.34;101903.41;4975573;28;20117;-72
2022/09/01 10:09:32;;;;;;;52.33;49.72;;;;;;;24.34;38.24;101896.16;4975550;28;20443;-71
2022/09/01 10:11:58;;;;;;;54.65;51.85;;;;;;;24.37;38.37;101890.03;4976500;28;20129;-72
2022/09/01 10:14:41;;;;;;;54.60;51.97;;;;;;;24.42;38.18;101900.16;4991097;28;20092;-73
2022/09/01 10:17:33;;;;;;;54.08;51.28;;;;;;;24.44;38.10;101884.06;4977213;28;20114;-73
2022/09/01 10:20:07;;;;;;;53.45;50.65;;;;;;;24.49;38.02;101895.03;4976529;28;20027;-72
2022/09/01 10:22:35;;;;;;;55.08;52.35;;;;;;;24.52;38.25;101885.31;4991508;28;20410;-74
2022/09/01 10:25:01;;;;;;;53.88;51.28;;;;;;;24.56;38.32;101886.34;4975859;28;20023;-70
2022/09/01 10:27:32;;;;;;;53.67;50.78;;;;;;;24.60;37.62;101885.41;4976180;28;20031;-73
2022/09/01 10:30:00;;;;;;;53.60;51.05;;;;;;;24.65;37.67;101889.19;4975860;28;20400;-76
2022/09/01 10:32:33;;;;;;;55.28;52.67;;;;;;;24.69;37.76;101881.91;4976185;28;20030;-74
2022/09/01 10:34:59;;;;;;;54.80;52.10;;;;;;;24.72;37.39;101878.50;4976137;28;20027;-74
2022/09/01 10:37:25;;;;;;;53.40;50.85;;;;;;;24.76;36.98;101882.28;4976517;28;20073;-73
2022/09/01 10:40:09;;;;;;;56.78;53.45;;;;;;;24.81;36.91;101876.66;4991441;28;20038;-73
2022/09/01 10:42:34;;;;;;;54.28;51.67;;;;;;;24.83;37.62;101877.16;4975809;28;20027;-74
2022/09/01 10:45:00;;;;;;;57.75;54.38;;;;;;;24.87;36.56;101878.16;4975133;28;20039;-73
2022/09/01 10:47:32;;;;;;;58.33;55.08;;;;;;;24.91;36.10;101867.31;4975848;28;20057;-74
2022/09/01 10:49:59;;;;;;;56.42;53.63;;;;;;;24.94;35.64;101870.25;4976383;28;20464;-74
2022/09/01 10:52:40;;;;;;;53.72;51.13;;;;;;;24.97;35.63;101872.41;4974563;28;20134;-74
2022/09/01 10:55:14;;;;;;;55.55;52.95;;;;;;;25.00;34.91;101859.91;4990233;28;20047;-74
2022/09/01 10:57:47;;;;;;;58.50;55.80;;;;;;;25.03;37.08;101875.88;4990859;28;20407;-75
2022/09/01 11:00:18;;;;;;;55.90;52.90;;;;;;;25.05;35.60;101863.38;4975228;28;20522;-74
2022/09/01 11:03:10;;;;;;;56.00;53.25;;;;;;;25.08;35.62;101864.69;4990502;28;20483;-75
2022/09/01 11:05:59;;;;;;;57.20;54.45;;;;;;;25.12;34.81;101865.66;4974192;28;20503;-75
2022/09/01 11:08:27;;;;;;;56.42;53.75;;;;;;;25.16;34.68;101858.41;4975245;28;20027;-74
2022/09/01 11:10:52;;;;;;;57.13;54.38;;;;;;;25.18;34.86;101858.94;4975580;28;20098;-81
2022/09/01 11:13:44;;;;;;;58.28;55.42;;;;;;;25.21;34.43;101865.78;4975304;28;20047;-72
2022/09/01 11:16:28;;;;;;;56.53;53.80;;;;;;;25.23;35.29;101863.53;4975267;28;20031;-73
2022/09/01 11:19:14;;;;;;;57.10;54.17;;;;;;;25.26;35.11;101854.59;4975338;28;20030;-73
2022/09/01 11:21:41;;;;;;;58.72;55.70;;;;;;;25.29;34.42;101855.91;4990853;28;20086;-75
2022/09/01 11:24:41;;;;;;;58.70;55.75;;;;;;;25.33;34.73;101856.91;4974710;28;20431;-74
2022/09/01 11:27:31;;;;;;;58.33;54.88;;;;;;;25.35;33.87;101857.41;4990179;28;20038;-73
2022/09/01 11:30:06;;;;;;;57.03;54.05;;;;;;;25.36;35.27;101854.31;4973580;28;20027;-74
2022/09/01 11:32:35;;;;;;;59.33;56.53;;;;;;;25.39;34.63;101850.09;4975253;28;20423;-74